sensor_id;sensor_type;location;lat;lon;timestamp;temperature;humidity
48988;DHT22;34799;51.440;-2.534;2023-04-01T00:02:13;10.00;99.90
48988;DHT22;34799;51.440;-2.534;2023-04-01T00:04:41;10.00;99.90
48988;DHT22;34799;51.440;-2.534;2023-04-01T00:07:10;10.00;99.90
48988;DHT22;34799;51.440;-2.534;2023-04-01T00:09:37;10.00;99.90
48988;DHT22;34799;51.440;-2.534;2023-04-01T00:12:04;10.00;99.90
48988;DHT22;34799;51.440;-2.534;2023-04-01T00:14:31;10.00;99.90
48988;DHT22;34799;51.440;-2.534;2023-04-01T00:16:58;10.00;99.90
48988;DHT22;34799;51.440;-2.534;2023-04-01T00:19:25;10.10;99.90
48988;DHT22;34799;51.440;-2.534;2023-04-01T00:21:52;10.00;99.90
48988;DHT22;34799;51.440;-2.534;2023-04-01T00:24:21;10.10;99.90
48988;DHT22;34799;51.440;-2.534;2023-04-01T00:26:48;10.00;99.90
48988;DHT22;34799;51.440;-2.534;2023-04-01T00:29:15;10.00;99.90
48988;DHT22;34799;51.440;-2.534;2023-04-01T00:31:42;10.00;99.90
48988;DHT22;34799;51.440;-2.534;2023-04-01T00:34:09;10.00;99.90
48988;DHT22;34799;51.440;-2.534;2023-04-01T00:36:36;10.00;99.90
48988;DHT22;34799;51.440;-2.534;2023-04-01T00:39:03;10.00;99.90
48988;DHT22;34799;51.440;-2.534;2023-04-01T00:41:32;8.10;99.90
48988;DHT22;34799;51.440;-2.534;2023-04-01T00:46:49;9.90;99.90
48988;DHT22;34799;51.440;-2.534;2023-04-01T00:49:19;9.90;99.90
48988;DHT22;34799;51.440;-2.534;2023-04-01T00:51:50;9.90;99.90
48988;DHT22;34799;51.440;-2.534;2023-04-01T00:54:21;10.00;99.90
48988;DHT22;34799;51.440;-2.534;2023-04-01T00:56:57;10.00;99.90
48988;DHT22;34799;51.440;-2.534;2023-04-01T00:59:48;10.00;99.90
48988;DHT22;34799;51.440;-2.534;2023-04-01T01:02:16;9.90;99.90
48988;DHT22;34799;51.440;-2.534;2023-04-01T01:04:44;9.90;99.90
48988;DHT22;34799;51.440;-2.534;2023-04-01T01:10:20;9.90;99.90
48988;DHT22;34799;51.440;-2.534;2023-04-01T01:18:43;9.90;99.90
48988;DHT22;34799;51.440;-2.534;2023-04-01T01:21:28;9.90;99.90
48988;DHT22;34799;51.440;-2.534;2023-04-01T01:24:17;9.90;99.90
48988;DHT22;34799;51.440;-2.534;2023-04-01T01:27:02;9.90;99.90
48988;DHT22;34799;51.440;-2.534;2023-04-01T01:32:38;9.90;99.90
48988;DHT22;34799;51.440;-2.534;2023-04-01T01:37:54;9.80;99.90
48988;DHT22;34799;51.440;-2.534;2023-04-01T01:40:25;9.90;99.90
48988;DHT22;34799;51.440;-2.534;2023-04-01T01:42:56;9.80;99.90
48988;DHT22;34799;51.440;-2.534;2023-04-01T01:45:26;9.80;99.90
48988;DHT22;34799;51.440;-2.534;2023-04-01T01:47:55;9.90;99.90
48988;DHT22;34799;51.440;-2.534;2023-04-01T01:50:26;9.80;99.90
48988;DHT22;34799;51.440;-2.534;2023-04-01T01:53:08;9.80;99.90
48988;DHT22;34799;51.440;-2.534;2023-04-01T01:55:42;9.80;99.90
48988;DHT22;34799;51.440;-2.534;2023-04-01T01:58:24;9.70;99.90
48988;DHT22;34799;51.440;-2.534;2023-04-01T02:00:57;9.80;99.90
48988;DHT22;34799;51.440;-2.534;2023-04-01T02:03:27;9.80;99.90
48988;DHT22;34799;51.440;-2.534;2023-04-01T02:05:59;9.80;99.90
48988;DHT22;34799;51.440;-2.534;2023-04-01T02:08:38;9.80;99.90
48988;DHT22;34799;51.440;-2.534;2023-04-01T02:11:10;9.80;99.90
48988;DHT22;34799;51.440;-2.534;2023-04-01T02:13:44;9.80;99.90
48988;DHT22;34799;51.440;-2.534;2023-04-01T02:16:17;9.80;99.90
48988;DHT22;34799;51.440;-2.534;2023-04-01T02:18:49;9.80;99.90
48988;DHT22;34799;51.440;-2.534;2023-04-01T02:21:20;9.70;99.90
48988;DHT22;34799;51.440;-2.534;2023-04-01T02:23:49;9.90;99.90
48988;DHT22;34799;51.440;-2.534;2023-04-01T02:26:17;9.70;99.90
48988;DHT22;34799;51.440;-2.534;2023-04-01T02:28:46;9.70;99.90
48988;DHT22;34799;51.440;-2.534;2023-04-01T02:31:15;9.70;99.90
48988;DHT22;34799;51.440;-2.534;2023-04-01T02:33:43;9.70;99.90
48988;DHT22;34799;51.440;-2.534;2023-04-01T02:36:13;9.80;99.90
48988;DHT22;34799;51.440;-2.534;2023-04-01T02:38:43;9.70;99.90
48988;DHT22;34799;51.440;-2.534;2023-04-01T02:41:11;9.60;99.90
48988;DHT22;34799;51.440;-2.534;2023-04-01T02:43:40;9.60;99.90
48988;DHT22;34799;51.440;-2.534;2023-04-01T02:46:07;9.60;99.90
48988;DHT22;34799;51.440;-2.534;2023-04-01T02:48:35;9.50;99.90
48988;DHT22;34799;51.440;-2.534;2023-04-01T02:51:02;9.60;99.90
48988;DHT22;34799;51.440;-2.534;2023-04-01T02:53:29;9.60;99.90
48988;DHT22;34799;51.440;-2.534;2023-04-01T02:55:56;9.60;99.90
48988;DHT22;34799;51.440;-2.534;2023-04-01T02:58:23;9.50;99.90
48988;DHT22;34799;51.440;-2.534;2023-04-01T03:00:51;9.50;99.90
48988;DHT22;34799;51.440;-2.534;2023-04-01T03:03:18;9.60;99.90
48988;DHT22;34799;51.440;-2.534;2023-04-01T03:05:45;9.70;99.90
48988;DHT22;34799;51.440;-2.534;2023-04-01T03:08:12;9.60;99.90
48988;DHT22;34799;51.440;-2.534;2023-04-01T03:10:39;9.60;99.90
48988;DHT22;34799;51.440;-2.534;2023-04-01T03:13:07;9.50;99.90
48988;DHT22;34799;51.440;-2.534;2023-04-01T03:15:34;9.60;99.90
48988;DHT22;34799;51.440;-2.534;2023-04-01T03:18:02;9.50;99.90
48988;DHT22;34799;51.440;-2.534;2023-04-01T03:20:30;9.50;99.90
48988;DHT22;34799;51.440;-2.534;2023-04-01T03:22:57;9.50;99.90
48988;DHT22;34799;51.440;-2.534;2023-04-01T03:25:26;9.50;99.90
48988;DHT22;34799;51.440;-2.534;2023-04-01T03:27:56;9.40;99.90
48988;DHT22;34799;51.440;-2.534;2023-04-01T03:30:26;9.40;99.90
48988;DHT22;34799;51.440;-2.534;2023-04-01T03:32:53;9.70;99.90
48988;DHT22;34799;51.440;-2.534;2023-04-01T03:35:20;9.50;99.90
48988;DHT22;34799;51.440;-2.534;2023-04-01T03:37:50;9.50;99.90
48988;DHT22;34799;51.440;-2.534;2023-04-01T03:40:17;9.50;99.90
48988;DHT22;34799;51.440;-2.534;2023-04-01T03:42:45;9.50;99.90
48988;DHT22;34799;51.440;-2.534;2023-04-01T03:45:14;9.50;99.90
48988;DHT22;34799;51.440;-2.534;2023-04-01T03:47:42;9.50;99.90
48988;DHT22;34799;51.440;-2.534;2023-04-01T03:50:09;9.50;99.90
48988;DHT22;34799;51.440;-2.534;2023-04-01T03:52:37;9.50;99.90
48988;DHT22;34799;51.440;-2.534;2023-04-01T03:55:04;9.50;99.90
48988;DHT22;34799;51.440;-2.534;2023-04-01T03:57:31;9.40;99.90
48988;DHT22;34799;51.440;-2.534;2023-04-01T04:00:05;9.40;99.90
48988;DHT22;34799;51.440;-2.534;2023-04-01T04:02:39;9.40;99.90
48988;DHT22;34799;51.440;-2.534;2023-04-01T04:05:07;9.40;99.90
48988;DHT22;34799;51.440;-2.534;2023-04-01T04:07:35;9.40;99.90
48988;DHT22;34799;51.440;-2.534;2023-04-01T04:10:06;9.40;99.90
48988;DHT22;34799;51.440;-2.534;2023-04-01T04:12:33;9.40;99.90
48988;DHT22;34799;51.440;-2.534;2023-04-01T04:15:01;9.50;99.90
48988;DHT22;34799;51.440;-2.534;2023-04-01T04:17:28;9.40;99.90
48988;DHT22;34799;51.440;-2.534;2023-04-01T04:19:55;9.40;99.90
48988;DHT22;34799;51.440;-2.534;2023-04-01T04:22:24;9.40;99.90
48988;DHT22;34799;51.440;-2.534;2023-04-01T04:24:51;9.40;99.90
48988;DHT22;34799;51.440;-2.534;2023-04-01T04:27:18;9.40;99.90
48988;DHT22;34799;51.440;-2.534;2023-04-01T04:30:06;9.50;99.90
48988;DHT22;34799;51.440;-2.534;2023-04-01T04:32:35;9.50;99.90
48988;DHT22;34799;51.440;-2.534;2023-04-01T04:35:03;9.50;99.90
48988;DHT22;34799;51.440;-2.534;2023-04-01T04:37:30;9.40;99.90
48988;DHT22;34799;51.440;-2.534;2023-04-01T04:39:57;9.40;99.90
48988;DHT22;34799;51.440;-2.534;2023-04-01T04:42:24;9.40;99.90
48988;DHT22;34799;51.440;-2.534;2023-04-01T04:44:56;9.40;99.90
48988;DHT22;34799;51.440;-2.534;2023-04-01T04:47:23;9.40;99.90
48988;DHT22;34799;51.440;-2.534;2023-04-01T04:49:50;9.40;99.90
48988;DHT22;34799;51.440;-2.534;2023-04-01T04:52:18;9.30;99.90
48988;DHT22;34799;51.440;-2.534;2023-04-01T04:54:45;9.70;99.90
48988;DHT22;34799;51.440;-2.534;2023-04-01T04:57:14;9.30;99.90
48988;DHT22;34799;51.440;-2.534;2023-04-01T04:59:49;9.40;99.90
48988;DHT22;34799;51.440;-2.534;2023-04-01T05:02:43;9.30;99.90
48988;DHT22;34799;51.440;-2.534;2023-04-01T05:05:10;9.30;99.90
48988;DHT22;34799;51.440;-2.534;2023-04-01T05:07:37;9.50;99.90
48988;DHT22;34799;51.440;-2.534;2023-04-01T05:10:05;9.40;99.90
48988;DHT22;34799;51.440;-2.534;2023-04-01T05:12:32;9.30;99.90
48988;DHT22;34799;51.440;-2.534;2023-04-01T05:15:07;9.30;99.90
48988;DHT22;34799;51.440;-2.534;2023-04-01T05:17:37;9.30;99.90
48988;DHT22;34799;51.440;-2.534;2023-04-01T05:20:04;9.30;99.90
48988;DHT22;34799;51.440;-2.534;2023-04-01T05:22:32;9.30;99.90
48988;DHT22;34799;51.440;-2.534;2023-04-01T05:24:59;9.30;99.90
48988;DHT22;34799;51.440;-2.534;2023-04-01T05:27:27;9.30;99.90
48988;DHT22;34799;51.440;-2.534;2023-04-01T05:29:56;9.30;99.90
48988;DHT22;34799;51.440;-2.534;2023-04-01T05:32:40;9.30;99.90
48988;DHT22;34799;51.440;-2.534;2023-04-01T05:35:07;9.30;99.90
48988;DHT22;34799;51.440;-2.534;2023-04-01T05:37:35;9.40;99.90
48988;DHT22;34799;51.440;-2.534;2023-04-01T05:40:04;9.30;99.90
48988;DHT22;34799;51.440;-2.534;2023-04-01T05:42:33;9.30;99.90
48988;DHT22;34799;51.440;-2.534;2023-04-01T05:45:02;9.30;99.90
48988;DHT22;34799;51.440;-2.534;2023-04-01T05:47:48;9.30;99.90
48988;DHT22;34799;51.440;-2.534;2023-04-01T05:50:15;9.50;99.90
48988;DHT22;34799;51.440;-2.534;2023-04-01T05:52:42;9.30;99.90
48988;DHT22;34799;51.440;-2.534;2023-04-01T05:55:11;9.30;99.90
48988;DHT22;34799;51.440;-2.534;2023-04-01T05:57:38;9.30;99.90
48988;DHT22;34799;51.440;-2.534;2023-04-01T06:00:06;9.20;99.90
48988;DHT22;34799;51.440;-2.534;2023-04-01T06:02:38;9.20;99.90
48988;DHT22;34799;51.440;-2.534;2023-04-01T06:05:22;9.20;99.90
48988;DHT22;34799;51.440;-2.534;2023-04-01T06:07:59;9.40;99.90
48988;DHT22;34799;51.440;-2.534;2023-04-01T06:39:07;9.50;99.90
48988;DHT22;34799;51.440;-2.534;2023-04-01T06:47:46;9.30;99.90
48988;DHT22;34799;51.440;-2.534;2023-04-01T06:57:15;9.40;99.90
48988;DHT22;34799;51.440;-2.534;2023-04-01T06:59:47;9.30;99.90
48988;DHT22;34799;51.440;-2.534;2023-04-01T07:02:38;9.20;99.90
48988;DHT22;34799;51.440;-2.534;2023-04-01T07:05:11;9.30;99.90
48988;DHT22;34799;51.440;-2.534;2023-04-01T07:07:43;9.30;99.90
48988;DHT22;34799;51.440;-2.534;2023-04-01T07:10:33;9.40;99.90
48988;DHT22;34799;51.440;-2.534;2023-04-01T07:17:22;9.40;99.90
48988;DHT22;34799;51.440;-2.534;2023-04-01T07:22:33;9.30;99.90
48988;DHT22;34799;51.440;-2.534;2023-04-01T07:28:17;9.40;99.90
48988;DHT22;34799;51.440;-2.534;2023-04-01T07:31:07;9.40;99.90
48988;DHT22;34799;51.440;-2.534;2023-04-01T07:33:55;9.40;99.90
48988;DHT22;34799;51.440;-2.534;2023-04-01T07:36:29;9.40;99.90
48988;DHT22;34799;51.440;-2.534;2023-04-01T07:39:11;9.40;99.90
48988;DHT22;34799;51.440;-2.534;2023-04-01T07:44:59;9.40;99.90
48988;DHT22;34799;51.440;-2.534;2023-04-01T07:50:41;9.50;99.90
48988;DHT22;34799;51.440;-2.534;2023-04-01T07:56:05;9.60;99.90
48988;DHT22;34799;51.440;-2.534;2023-04-01T07:59:03;9.60;99.90
48988;DHT22;34799;51.440;-2.534;2023-04-01T08:02:19;9.90;99.90
48988;DHT22;34799;51.440;-2.534;2023-04-01T08:05:00;9.60;99.90
48988;DHT22;34799;51.440;-2.534;2023-04-01T08:10:52;9.70;99.90
48988;DHT22;34799;51.440;-2.534;2023-04-01T08:14:25;9.70;99.90
48988;DHT22;34799;51.440;-2.534;2023-04-01T08:19:39;9.70;99.90
48988;DHT22;34799;51.440;-2.534;2023-04-01T08:22:22;9.80;99.90
48988;DHT22;34799;51.440;-2.534;2023-04-01T08:24:54;9.90;99.90
48988;DHT22;34799;51.440;-2.534;2023-04-01T08:32:39;10.10;99.90
48988;DHT22;34799;51.440;-2.534;2023-04-01T08:37:47;10.10;99.90
48988;DHT22;34799;51.440;-2.534;2023-04-01T08:44:17;10.00;99.90
48988;DHT22;34799;51.440;-2.534;2023-04-01T08:53:07;10.00;99.90
48988;DHT22;34799;51.440;-2.534;2023-04-01T08:56:06;10.00;99.90
48988;DHT22;34799;51.440;-2.534;2023-04-01T08:59:02;9.90;99.90
48988;DHT22;34799;51.440;-2.534;2023-04-01T09:07:51;10.00;99.90
48988;DHT22;34799;51.440;-2.534;2023-04-01T09:10:35;10.00;99.90
48988;DHT22;34799;51.440;-2.534;2023-04-01T09:19:14;10.00;99.90
48988;DHT22;34799;51.440;-2.534;2023-04-01T09:33:05;10.20;99.90
48988;DHT22;34799;51.440;-2.534;2023-04-01T09:35:58;10.20;99.90
48988;DHT22;34799;51.440;-2.534;2023-04-01T09:41:32;10.30;99.90
48988;DHT22;34799;51.440;-2.534;2023-04-01T09:44:12;10.30;99.90
48988;DHT22;34799;51.440;-2.534;2023-04-01T10:09:15;10.60;99.90
48988;DHT22;34799;51.440;-2.534;2023-04-01T10:12:11;10.60;99.90
48988;DHT22;34799;51.440;-2.534;2023-04-01T10:21:02;10.40;99.90
48988;DHT22;34799;51.440;-2.534;2023-04-01T10:23:43;10.40;99.90
48988;DHT22;34799;51.440;-2.534;2023-04-01T10:29:56;10.50;99.90
48988;DHT22;34799;51.440;-2.534;2023-04-01T10:38:36;10.50;99.90
48988;DHT22;34799;51.440;-2.534;2023-04-01T11:14:39;10.60;99.90
48988;DHT22;34799;51.440;-2.534;2023-04-01T11:22:53;10.70;99.90
48988;DHT22;34799;51.440;-2.534;2023-04-01T11:26:32;10.70;99.90
48988;DHT22;34799;51.440;-2.534;2023-04-01T11:34:57;10.50;99.90
48988;DHT22;34799;51.440;-2.534;2023-04-01T11:50:12;10.80;99.90
48988;DHT22;34799;51.440;-2.534;2023-04-01T12:09:58;10.70;99.90
48988;DHT22;34799;51.440;-2.534;2023-04-01T12:20:57;10.70;99.90
48988;DHT22;34799;51.440;-2.534;2023-04-01T12:32:19;11.00;99.90
48988;DHT22;34799;51.440;-2.534;2023-04-01T12:35:20;10.90;99.90
48988;DHT22;34799;51.440;-2.534;2023-04-01T12:41:18;10.90;99.90
48988;DHT22;34799;51.440;-2.534;2023-04-01T12:55:30;11.20;99.90
48988;DHT22;34799;51.440;-2.534;2023-04-01T12:58:24;11.10;99.90
48988;DHT22;34799;51.440;-2.534;2023-04-01T13:18:24;11.20;99.90
48988;DHT22;34799;51.440;-2.534;2023-04-01T13:29:28;11.20;99.90
48988;DHT22;34799;51.440;-2.534;2023-04-01T13:43:03;11.20;99.90
48988;DHT22;34799;51.440;-2.534;2023-04-01T13:45:50;11.30;99.90
48988;DHT22;34799;51.440;-2.534;2023-04-01T13:48:53;11.40;99.90
48988;DHT22;34799;51.440;-2.534;2023-04-01T13:54:12;11.50;99.90
48988;DHT22;34799;51.440;-2.534;2023-04-01T14:05:34;11.80;99.90
48988;DHT22;34799;51.440;-2.534;2023-04-01T14:08:30;11.90;99.90
48988;DHT22;34799;51.440;-2.534;2023-04-01T14:13:56;12.10;99.90
48988;DHT22;34799;51.440;-2.534;2023-04-01T14:19:26;12.10;99.90
48988;DHT22;34799;51.440;-2.534;2023-04-01T14:33:39;12.20;99.90
48988;DHT22;34799;51.440;-2.534;2023-04-01T14:36:21;12.10;99.90
48988;DHT22;34799;51.440;-2.534;2023-04-01T14:39:00;12.30;99.90
48988;DHT22;34799;51.440;-2.534;2023-04-01T14:41:41;12.50;99.90
48988;DHT22;34799;51.440;-2.534;2023-04-01T14:44:35;12.60;99.90
48988;DHT22;34799;51.440;-2.534;2023-04-01T14:50:20;12.80;99.90
48988;DHT22;34799;51.440;-2.534;2023-04-01T14:53:12;12.70;99.90
48988;DHT22;34799;51.440;-2.534;2023-04-01T14:55:50;12.60;99.90
48988;DHT22;34799;51.440;-2.534;2023-04-01T14:58:21;12.70;99.90
48988;DHT22;34799;51.440;-2.534;2023-04-01T15:01:11;12.80;99.90
48988;DHT22;34799;51.440;-2.534;2023-04-01T15:03:45;12.80;99.90
48988;DHT22;34799;51.440;-2.534;2023-04-01T15:06:48;13.00;99.90
48988;DHT22;34799;51.440;-2.534;2023-04-01T15:09:19;13.00;99.90
48988;DHT22;34799;51.440;-2.534;2023-04-01T15:18:03;13.00;99.90
48988;DHT22;34799;51.440;-2.534;2023-04-01T15:20:47;13.20;99.90
48988;DHT22;34799;51.440;-2.534;2023-04-01T15:43:11;12.30;99.90
48988;DHT22;34799;51.440;-2.534;2023-04-01T15:45:51;10.50;99.90
48988;DHT22;34799;51.440;-2.534;2023-04-01T15:51:20;12.80;99.90
48988;DHT22;34799;51.440;-2.534;2023-04-01T16:02:07;13.10;99.90
48988;DHT22;34799;51.440;-2.534;2023-04-01T16:05:04;13.10;99.90
48988;DHT22;34799;51.440;-2.534;2023-04-01T16:10:16;13.00;99.90
48988;DHT22;34799;51.440;-2.534;2023-04-01T16:13:28;12.90;99.90
48988;DHT22;34799;51.440;-2.534;2023-04-01T16:19:16;12.30;99.90
48988;DHT22;34799;51.440;-2.534;2023-04-01T16:22:35;12.60;99.90
48988;DHT22;34799;51.440;-2.534;2023-04-01T16:30:40;12.70;99.90
48988;DHT22;34799;51.440;-2.534;2023-04-01T16:33:19;12.70;99.90
48988;DHT22;34799;51.440;-2.534;2023-04-01T16:36:13;12.60;99.90
48988;DHT22;34799;51.440;-2.534;2023-04-01T16:39:45;12.60;99.90
48988;DHT22;34799;51.440;-2.534;2023-04-01T16:47:40;13.60;99.90
48988;DHT22;34799;51.440;-2.534;2023-04-01T16:50:24;14.10;99.90
48988;DHT22;34799;51.440;-2.534;2023-04-01T16:53:10;14.00;99.90
48988;DHT22;34799;51.440;-2.534;2023-04-01T16:55:51;13.60;99.90
48988;DHT22;34799;51.440;-2.534;2023-04-01T16:58:25;13.40;99.90
48988;DHT22;34799;51.440;-2.534;2023-04-01T17:01:14;13.30;99.90
48988;DHT22;34799;51.440;-2.534;2023-04-01T17:03:45;13.20;99.90
48988;DHT22;34799;51.440;-2.534;2023-04-01T17:15:18;13.40;99.90
48988;DHT22;34799;51.440;-2.534;2023-04-01T17:20:43;13.20;99.90
48988;DHT22;34799;51.440;-2.534;2023-04-01T17:37:05;12.20;99.90
48988;DHT22;34799;51.440;-2.534;2023-04-01T17:42:39;12.20;99.90
48988;DHT22;34799;51.440;-2.534;2023-04-01T18:08:12;11.70;99.90
48988;DHT22;34799;51.440;-2.534;2023-04-01T18:13:41;11.60;99.90
48988;DHT22;34799;51.440;-2.534;2023-04-01T18:16:18;11.70;99.90
48988;DHT22;34799;51.440;-2.534;2023-04-01T18:24:14;11.40;99.90
48988;DHT22;34799;51.440;-2.534;2023-04-01T18:26:49;11.40;99.90
48988;DHT22;34799;51.440;-2.534;2023-04-01T18:29:24;11.40;99.90
48988;DHT22;34799;51.440;-2.534;2023-04-01T18:31:55;11.40;99.90
48988;DHT22;34799;51.440;-2.534;2023-04-01T18:37:36;11.30;99.90
48988;DHT22;34799;51.440;-2.534;2023-04-01T18:40:34;11.30;99.90
48988;DHT22;34799;51.440;-2.534;2023-04-01T18:45:58;11.10;99.90
48988;DHT22;34799;51.440;-2.534;2023-04-01T18:51:51;11.10;99.90
48988;DHT22;34799;51.440;-2.534;2023-04-01T18:54:30;11.10;99.90
48988;DHT22;34799;51.440;-2.534;2023-04-01T18:57:25;11.10;99.90
48988;DHT22;34799;51.440;-2.534;2023-04-01T19:00:04;11.00;99.90
48988;DHT22;34799;51.440;-2.534;2023-04-01T19:02:46;10.80;99.90
48988;DHT22;34799;51.440;-2.534;2023-04-01T19:05:39;10.80;99.90
48988;DHT22;34799;51.440;-2.534;2023-04-01T19:08:27;10.70;99.90
48988;DHT22;34799;51.440;-2.534;2023-04-01T19:14:00;10.60;99.90
48988;DHT22;34799;51.440;-2.534;2023-04-01T19:19:33;10.70;99.90
48988;DHT22;34799;51.440;-2.534;2023-04-01T19:22:17;10.60;99.90
48988;DHT22;34799;51.440;-2.534;2023-04-01T19:25:00;10.50;99.90
48988;DHT22;34799;51.440;-2.534;2023-04-01T19:27:41;10.40;99.90
48988;DHT22;34799;51.440;-2.534;2023-04-01T19:36:07;10.30;99.90
48988;DHT22;34799;51.440;-2.534;2023-04-01T19:39:17;10.20;99.90
48988;DHT22;34799;51.440;-2.534;2023-04-01T19:41:59;10.20;99.90
48988;DHT22;34799;51.440;-2.534;2023-04-01T19:50:39;10.10;99.90
48988;DHT22;34799;51.440;-2.534;2023-04-01T19:58:45;10.10;99.90
48988;DHT22;34799;51.440;-2.534;2023-04-01T20:04:20;10.10;99.90
48988;DHT22;34799;51.440;-2.534;2023-04-01T20:15:35;9.80;99.90
48988;DHT22;34799;51.440;-2.534;2023-04-01T20:18:12;9.80;99.90
48988;DHT22;34799;51.440;-2.534;2023-04-01T20:20:56;9.70;99.90
48988;DHT22;34799;51.440;-2.534;2023-04-01T20:23:45;9.80;99.90
48988;DHT22;34799;51.440;-2.534;2023-04-01T20:26:25;9.70;99.90
48988;DHT22;34799;51.440;-2.534;2023-04-01T20:31:42;9.70;99.90
48988;DHT22;34799;51.440;-2.534;2023-04-01T20:37:52;9.70;99.90
48988;DHT22;34799;51.440;-2.534;2023-04-01T20:43:30;9.60;99.90
48988;DHT22;34799;51.440;-2.534;2023-04-01T20:51:32;9.60;99.90
48988;DHT22;34799;51.440;-2.534;2023-04-01T20:54:18;9.60;99.90
48988;DHT22;34799;51.440;-2.534;2023-04-01T20:57:05;9.60;99.90
48988;DHT22;34799;51.440;-2.534;2023-04-01T21:02:54;9.60;99.90
48988;DHT22;34799;51.440;-2.534;2023-04-01T21:05:50;9.60;99.90
48988;DHT22;34799;51.440;-2.534;2023-04-01T21:11:14;9.60;99.90
48988;DHT22;34799;51.440;-2.534;2023-04-01T21:14:07;9.60;99.90
48988;DHT22;34799;51.440;-2.534;2023-04-01T21:38:38;9.40;99.90
48988;DHT22;34799;51.440;-2.534;2023-04-01T22:00:38;9.40;99.90
48988;DHT22;34799;51.440;-2.534;2023-04-01T22:11:26;9.30;99.90
48988;DHT22;34799;51.440;-2.534;2023-04-01T22:14:24;9.30;99.90
48988;DHT22;34799;51.440;-2.534;2023-04-01T22:20:12;9.20;99.90
48988;DHT22;34799;51.440;-2.534;2023-04-01T22:28:27;9.40;99.90
48988;DHT22;34799;51.440;-2.534;2023-04-01T22:31:03;9.10;99.90
48988;DHT22;34799;51.440;-2.534;2023-04-01T22:47:59;9.10;99.90
48988;DHT22;34799;51.440;-2.534;2023-04-01T22:50:40;9.10;99.90
48988;DHT22;34799;51.440;-2.534;2023-04-01T22:56:06;9.10;99.90
48988;DHT22;34799;51.440;-2.534;2023-04-01T22:58:37;9.40;99.90
48988;DHT22;34799;51.440;-2.534;2023-04-01T23:01:11;9.10;99.90
48988;DHT22;34799;51.440;-2.534;2023-04-01T23:03:45;9.10;99.90
48988;DHT22;34799;51.440;-2.534;2023-04-01T23:06:19;9.10;99.90
48988;DHT22;34799;51.440;-2.534;2023-04-01T23:09:29;9.40;99.90
48988;DHT22;34799;51.440;-2.534;2023-04-01T23:12:07;9.10;99.90
48988;DHT22;34799;51.440;-2.534;2023-04-01T23:14:43;9.00;99.90
48988;DHT22;34799;51.440;-2.534;2023-04-01T23:20:29;9.30;99.90
48988;DHT22;34799;51.440;-2.534;2023-04-01T23:25:53;9.00;99.90
48988;DHT22;34799;51.440;-2.534;2023-04-01T23:30:54;9.50;99.90
48988;DHT22;34799;51.440;-2.534;2023-04-01T23:33:23;8.90;99.90
48988;DHT22;34799;51.440;-2.534;2023-04-01T23:38:24;8.90;99.90
48988;DHT22;34799;51.440;-2.534;2023-04-01T23:40:54;8.90;99.90
48988;DHT22;34799;51.440;-2.534;2023-04-01T23:43:25;8.90;99.90
48988;DHT22;34799;51.440;-2.534;2023-04-01T23:45:54;9.00;99.90
48988;DHT22;34799;51.440;-2.534;2023-04-01T23:48:28;8.90;99.90
48988;DHT22;34799;51.440;-2.534;2023-04-01T23:50:59;8.90;99.90
48988;DHT22;34799;51.440;-2.534;2023-04-01T23:53:31;8.90;99.90
48988;DHT22;34799;51.440;-2.534;2023-04-01T23:56:02;8.90;99.90
48988;DHT22;34799;51.440;-2.534;2023-04-01T23:58:46;8.90;99.90
